Weather History for KZPH - April, 2013

Change the Weather History Date:

Wednesday, April 24, 2013

  Actual Average (KPCM) Record (KPCM)
Temperature  
Mean Temperature 70 °F -  
Max Temperature 86 °F 84 °F 94 °F (1949)
Min Temperature 53 °F 60 °F 43 °F (1986)
Cooling Degree Days 4    
Growing Degree Days 20 (Base 50)    
Moisture  
Dew Point 55 °F    
Average Humidity 67    
Maximum Humidity 100    
Minimum Humidity 27    
Precipitation  
Precipitation 0.00 in - - ()
Sea Level Pressure  
Sea Level Pressure 30.13 in    
Wind  
Wind Speed 3 mph (ENE)    
Max Wind Speed 9 mph    
Max Gust Speed -    
Visibility 8 miles    
Events Fog    
Averages and records for this station are not official NWS values.
T = Trace of Precipitation, MM = Missing Value Source: NWS Daily Summary

Daily Weather History Graph

Daily Weather History Graph

Search for Another Location

Airport or City:

Trip Planner

Search our weather history database for the weather conditions in past years. The results will help you decide how hot, cold, wet, or windy it might be!

Date:

Astronomy

Apr. 24, 2013 Rise Set
Actual Time 6:54 AM EDT 7:59 PM EDT
Civil Twilight 6:29 AM EDT 8:23 PM EDT
Nautical Twilight 6:00 AM EDT 8:53 PM EDT
Astronomical Twilight 5:31 AM EDT 9:22 PM EDT
Moon 7:03 PM EDT (4/24) 5:51 AM EDT (4/24)
Length of Visible Light 13h 54m
Length of Day
13h 05m
Waxing Gibbous, 98% of the Moon is Illuminated
Apr 24
Waxing Gibbous
Apr 25
Full
May 2
Last Quarter
May 9
New
May 18
First Quarter

Hourly Weather History & Observations

Time (EDT) Temp. Heat Index Dew Point Humidity Pressure Visibility Wind Dir Wind Speed Gust Speed Precip Events Conditions
12:15 AM 60.8 °F - 60.8 °F 100% 30.14 in 10.0 mi NE 3.5 mph - N/A   Clear
12:35 AM 60.8 °F - 60.8 °F 100% 30.15 in 10.0 mi NE 3.5 mph - N/A   Clear
12:55 AM 60.8 °F - 60.8 °F 100% 30.15 in 10.0 mi ENE 3.5 mph - N/A   Clear
1:15 AM 59.0 °F - 59.0 °F 100% 30.14 in 10.0 mi Calm Calm - N/A   Clear
1:35 AM 59.0 °F - 59.0 °F 100% 30.14 in 10.0 mi NE 3.5 mph - N/A   Clear
1:55 AM 59.0 °F - 59.0 °F 100% 30.13 in 10.0 mi NE 3.5 mph - N/A   Clear
2:15 AM 59.0 °F - 59.0 °F 100% 30.13 in 10.0 mi ENE 3.5 mph - N/A   Clear
2:35 AM 59.0 °F - 59.0 °F 100% 30.12 in 10.0 mi NE 3.5 mph - N/A   Clear
2:55 AM 57.2 °F - 57.2 °F 100% 30.12 in 10.0 mi NNE 3.5 mph - N/A   Clear
3:15 AM 57.2 °F - 57.2 °F 100% 30.12 in 10.0 mi Calm Calm - N/A   Clear
3:35 AM 57.2 °F - 57.2 °F 100% 30.11 in 7.0 mi Calm Calm - N/A   Clear
3:55 AM 55.4 °F - 55.4 °F 100% 30.12 in 7.0 mi Calm Calm - N/A   Clear
4:15 AM 55.4 °F - 55.4 °F 100% 30.12 in 7.0 mi Calm Calm - N/A   Clear
4:35 AM 55.4 °F - 55.4 °F 100% 30.12 in 2.0 mi Calm Calm - N/A   Clear
4:55 AM 53.6 °F - 53.6 °F 100% 30.12 in 0.5 mi Calm Calm - N/A Fog Fog
5:15 AM 53.6 °F - 53.6 °F 100% 30.12 in 1.2 mi Calm Calm - N/A   Mist
5:35 AM 53.6 °F - 53.6 °F 100% 30.13 in 0.5 mi Calm Calm - N/A Fog Fog
5:55 AM 53.6 °F - 53.6 °F 100% 30.13 in 0.8 mi Calm Calm - N/A   Mist
6:15 AM 53.6 °F - 53.6 °F 100% 30.13 in 0.5 mi Calm Calm - N/A Fog Fog
6:35 AM 53.6 °F - 53.6 °F 100% 30.13 in 0.2 mi Calm Calm - N/A Fog Fog
6:55 AM 53.6 °F - 53.6 °F 100% 30.14 in 1.2 mi Calm Calm - N/A   Overcast
7:15 AM 53.6 °F - 53.6 °F 100% 30.14 in 0.2 mi Calm Calm - N/A Fog Fog
7:35 AM 53.6 °F - 53.6 °F 100% 30.15 in 1.8 mi Calm Calm - N/A   Scattered Clouds
7:55 AM 55.4 °F - 55.4 °F 100% 30.16 in 7.0 mi Calm Calm - N/A   Clear
8:15 AM 57.2 °F - 57.2 °F 100% 30.16 in 10.0 mi ENE 3.5 mph - N/A   Clear
8:35 AM 59.0 °F - 59.0 °F 100% 30.16 in 10.0 mi ENE 4.6 mph - N/A   Clear
8:55 AM 60.8 °F - 60.8 °F 100% 30.17 in 10.0 mi Calm Calm - N/A   Clear
9:15 AM 64.4 °F - 64.4 °F 100% 30.17 in 10.0 mi East 5.8 mph - N/A   Clear
9:35 AM 68.0 °F - 64.4 °F 88% 30.17 in 10.0 mi East 4.6 mph - N/A   Clear
9:55 AM 71.6 °F - 64.4 °F 78% 30.17 in 10.0 mi East 6.9 mph - N/A   Clear
10:15 AM 73.4 °F - 64.4 °F 73% 30.17 in 10.0 mi SSE 6.9 mph - N/A   Clear
10:35 AM 75.2 °F - 59.0 °F 57% 30.17 in 10.0 mi ESE 8.1 mph - N/A   Clear
10:55 AM 77.0 °F - 59.0 °F 54% 30.17 in 10.0 mi ESE 8.1 mph - N/A   Clear
11:15 AM 77.0 °F - 53.6 °F 44% 30.17 in 10.0 mi SE 8.1 mph - N/A   Clear
11:35 AM 78.8 °F - 51.8 °F 39% 30.16 in 10.0 mi SE 8.1 mph - N/A   Clear
11:55 AM 78.8 °F - 51.8 °F 39% 30.16 in 10.0 mi ESE 9.2 mph - N/A   Clear
12:15 PM 80.6 °F - 51.8 °F 37% 30.15 in 10.0 mi SE 4.6 mph - N/A   Clear
12:35 PM 80.6 °F - 51.8 °F 37% 30.15 in 10.0 mi South 4.6 mph - N/A   Clear
12:55 PM 80.6 °F - 51.8 °F 37% 30.14 in 10.0 mi SSE 4.6 mph - N/A   Clear
1:15 PM 82.4 °F - 51.8 °F 35% 30.14 in 10.0 mi SSW 6.9 mph - N/A   Clear
1:35 PM 82.4 °F - 50.0 °F 32% 30.13 in 10.0 mi SSW 4.6 mph - N/A   Clear
1:55 PM 82.4 °F - 50.0 °F 32% 30.13 in 10.0 mi Calm Calm - N/A   Clear
2:15 PM 84.2 °F - 50.0 °F 30% 30.13 in 10.0 mi South 6.9 mph - N/A   Clear
2:35 PM 84.2 °F - 48.2 °F 29% 30.12 in 10.0 mi Calm Calm - N/A   Clear
2:55 PM 84.2 °F - 48.2 °F 29% 30.12 in 10.0 mi SW 3.5 mph - N/A   Clear
3:15 PM 84.2 °F - 50.0 °F 30% 30.11 in 10.0 mi Calm Calm - N/A   Clear
3:35 PM 86.0 °F - 48.2 °F 27% 30.11 in 10.0 mi West 3.5 mph - N/A   Clear
3:55 PM 86.0 °F - 48.2 °F 27% 30.10 in 10.0 mi Calm Calm - N/A   Clear
4:15 PM 86.0 °F - 48.2 °F 27% 30.10 in 10.0 mi NNW 5.8 mph - N/A   Clear
4:35 PM 86.0 °F - 48.2 °F 27% 30.10 in 10.0 mi Calm Calm - N/A   Clear
4:55 PM 82.4 °F - 48.2 °F 30% 30.09 in 10.0 mi Calm Calm - N/A   Clear
5:15 PM 82.4 °F - 48.2 °F 30% 30.09 in 10.0 mi ENE 3.5 mph - N/A   Clear
5:35 PM 84.2 °F - 48.2 °F 29% 30.09 in 10.0 mi SSW 4.6 mph - N/A   Clear
5:55 PM 82.4 °F - 48.2 °F 30% 30.10 in 10.0 mi South 3.5 mph - N/A   Scattered Clouds
6:15 PM 82.4 °F - 48.2 °F 30% 30.10 in 10.0 mi Calm Calm - N/A   Mostly Cloudy
6:35 PM 82.4 °F - 46.4 °F 28% 30.10 in 10.0 mi WNW 3.5 mph - N/A   Scattered Clouds
6:55 PM 80.6 °F 80.3 °F 53.6 °F 39% 30.10 in 10.0 mi NW 9.2 mph - N/A   Clear
7:15 PM 78.8 °F - 53.6 °F 42% 30.10 in 10.0 mi WNW 9.2 mph - N/A   Clear
7:35 PM 77.0 °F - 53.6 °F 44% 30.11 in 10.0 mi WNW 9.2 mph - N/A   Clear
7:55 PM 77.0 °F - 53.6 °F 44% 30.12 in 10.0 mi WNW 8.1 mph - N/A   Clear
8:15 PM 73.4 °F - 55.4 °F 53% 30.12 in 10.0 mi WNW 4.6 mph - N/A   Clear
8:35 PM 73.4 °F - 55.4 °F 53% 30.13 in 10.0 mi NW 5.8 mph - N/A   Clear
8:55 PM 73.4 °F - 55.4 °F 53% 30.13 in 10.0 mi NW 6.9 mph - N/A   Clear
9:15 PM 71.6 °F - 57.2 °F 60% 30.14 in 10.0 mi NNW 4.6 mph - N/A   Clear
9:35 PM 69.8 °F - 59.0 °F 68% 30.15 in 10.0 mi North 3.5 mph - N/A   Clear
9:55 PM 69.8 °F - 59.0 °F 68% 30.15 in 10.0 mi NNW 3.5 mph - N/A   Clear
11:15 PM 69.8 °F - 60.8 °F 73% 30.16 in 10.0 mi East 8.1 mph - N/A   Clear
11:35 PM 69.8 °F - 60.8 °F 73% 30.16 in 10.0 mi East 6.9 mph - N/A   Clear
11:55 PM 69.8 °F - 60.8 °F 73% 30.15 in 10.0 mi ESE 6.9 mph - N/A   Clear